sensor_id;sensor_type;location;lat;lon;timestamp;temperature;humidity
6252;DHT22;3159;52.414;9.784;2023-10-31T00:00:04;13.10;99.90
6252;DHT22;3159;52.414;9.784;2023-10-31T00:02:31;13.10;99.90
6252;DHT22;3159;52.414;9.784;2023-10-31T00:04:58;13.10;99.90
6252;DHT22;3159;52.414;9.784;2023-10-31T00:07:26;13.00;99.90
6252;DHT22;3159;52.414;9.784;2023-10-31T00:09:54;12.90;99.90
6252;DHT22;3159;52.414;9.784;2023-10-31T00:12:21;12.90;99.90
6252;DHT22;3159;52.414;9.784;2023-10-31T00:14:48;12.90;99.90
6252;DHT22;3159;52.414;9.784;2023-10-31T00:17:15;12.90;99.90
6252;DHT22;3159;52.414;9.784;2023-10-31T00:19:42;13.00;99.90
6252;DHT22;3159;52.414;9.784;2023-10-31T00:22:10;13.00;99.90
6252;DHT22;3159;52.414;9.784;2023-10-31T00:24:38;13.00;99.90
6252;DHT22;3159;52.414;9.784;2023-10-31T00:27:06;13.10;99.90
6252;DHT22;3159;52.414;9.784;2023-10-31T00:29:33;13.40;99.90
6252;DHT22;3159;52.414;9.784;2023-10-31T00:32:00;13.50;99.90
6252;DHT22;3159;52.414;9.784;2023-10-31T00:34:27;13.30;99.90
6252;DHT22;3159;52.414;9.784;2023-10-31T00:36:54;13.40;99.90
6252;DHT22;3159;52.414;9.784;2023-10-31T00:39:21;13.20;99.90
6252;DHT22;3159;52.414;9.784;2023-10-31T00:41:48;13.40;99.90
6252;DHT22;3159;52.414;9.784;2023-10-31T00:44:17;13.60;99.90
6252;DHT22;3159;52.414;9.784;2023-10-31T00:46:44;13.70;99.90
6252;DHT22;3159;52.414;9.784;2023-10-31T00:49:11;13.80;99.90
6252;DHT22;3159;52.414;9.784;2023-10-31T00:51:38;13.90;99.90
6252;DHT22;3159;52.414;9.784;2023-10-31T00:54:05;13.90;99.90
6252;DHT22;3159;52.414;9.784;2023-10-31T00:56:32;14.00;99.90
6252;DHT22;3159;52.414;9.784;2023-10-31T00:59:00;13.90;99.90
6252;DHT22;3159;52.414;9.784;2023-10-31T01:01:28;13.90;99.90
6252;DHT22;3159;52.414;9.784;2023-10-31T01:03:55;13.90;99.90
6252;DHT22;3159;52.414;9.784;2023-10-31T01:06:22;13.90;99.90
6252;DHT22;3159;52.414;9.784;2023-10-31T01:08:49;13.60;99.90
6252;DHT22;3159;52.414;9.784;2023-10-31T01:11:16;13.70;99.90
6252;DHT22;3159;52.414;9.784;2023-10-31T01:13:43;13.80;99.90
6252;DHT22;3159;52.414;9.784;2023-10-31T01:16:11;13.90;99.90
6252;DHT22;3159;52.414;9.784;2023-10-31T01:18:40;13.90;99.90
6252;DHT22;3159;52.414;9.784;2023-10-31T01:21:07;13.60;99.90
6252;DHT22;3159;52.414;9.784;2023-10-31T01:23:34;13.50;99.90
6252;DHT22;3159;52.414;9.784;2023-10-31T01:26:01;13.60;99.90
6252;DHT22;3159;52.414;9.784;2023-10-31T01:28:29;13.60;99.90
6252;DHT22;3159;52.414;9.784;2023-10-31T01:30:56;13.60;99.90
6252;DHT22;3159;52.414;9.784;2023-10-31T01:33:23;13.70;99.90
6252;DHT22;3159;52.414;9.784;2023-10-31T01:35:54;13.80;99.90
6252;DHT22;3159;52.414;9.784;2023-10-31T01:38:21;13.80;99.90
6252;DHT22;3159;52.414;9.784;2023-10-31T01:40:49;13.80;99.90
6252;DHT22;3159;52.414;9.784;2023-10-31T01:43:29;13.70;99.90
6252;DHT22;3159;52.414;9.784;2023-10-31T01:45:57;13.70;99.90
6252;DHT22;3159;52.414;9.784;2023-10-31T01:48:24;13.70;99.90
6252;DHT22;3159;52.414;9.784;2023-10-31T01:50:53;13.80;99.90
6252;DHT22;3159;52.414;9.784;2023-10-31T01:53:21;13.70;99.90
6252;DHT22;3159;52.414;9.784;2023-10-31T01:55:49;13.80;99.90
6252;DHT22;3159;52.414;9.784;2023-10-31T01:58:16;13.90;99.90
6252;DHT22;3159;52.414;9.784;2023-10-31T02:00:44;13.90;99.90
6252;DHT22;3159;52.414;9.784;2023-10-31T02:03:13;14.00;99.90
6252;DHT22;3159;52.414;9.784;2023-10-31T02:05:41;13.90;99.90
6252;DHT22;3159;52.414;9.784;2023-10-31T02:08:09;13.90;99.90
6252;DHT22;3159;52.414;9.784;2023-10-31T02:10:36;14.00;99.90
6252;DHT22;3159;52.414;9.784;2023-10-31T02:13:10;14.00;99.90
6252;DHT22;3159;52.414;9.784;2023-10-31T02:15:38;14.10;99.90
6252;DHT22;3159;52.414;9.784;2023-10-31T02:18:05;14.00;99.90
6252;DHT22;3159;52.414;9.784;2023-10-31T02:20:32;14.00;99.90
6252;DHT22;3159;52.414;9.784;2023-10-31T02:23:01;14.10;99.90
6252;DHT22;3159;52.414;9.784;2023-10-31T02:25:28;14.10;99.90
6252;DHT22;3159;52.414;9.784;2023-10-31T02:27:55;14.00;99.90
6252;DHT22;3159;52.414;9.784;2023-10-31T02:30:23;14.00;99.90
6252;DHT22;3159;52.414;9.784;2023-10-31T02:32:50;14.10;99.90
6252;DHT22;3159;52.414;9.784;2023-10-31T02:35:18;14.00;99.90
6252;DHT22;3159;52.414;9.784;2023-10-31T02:37:45;13.90;99.90
6252;DHT22;3159;52.414;9.784;2023-10-31T02:40:14;14.00;99.90
6252;DHT22;3159;52.414;9.784;2023-10-31T02:42:42;14.10;99.90
6252;DHT22;3159;52.414;9.784;2023-10-31T02:45:10;14.00;99.90
6252;DHT22;3159;52.414;9.784;2023-10-31T02:47:37;14.10;99.90
6252;DHT22;3159;52.414;9.784;2023-10-31T02:50:05;14.00;99.90
6252;DHT22;3159;52.414;9.784;2023-10-31T02:52:32;13.90;99.90
6252;DHT22;3159;52.414;9.784;2023-10-31T02:54:59;13.90;99.90
6252;DHT22;3159;52.414;9.784;2023-10-31T02:57:29;13.90;99.90
6252;DHT22;3159;52.414;9.784;2023-10-31T02:59:56;13.80;99.90
6252;DHT22;3159;52.414;9.784;2023-10-31T03:02:23;14.00;99.90
6252;DHT22;3159;52.414;9.784;2023-10-31T03:04:50;13.80;99.90
6252;DHT22;3159;52.414;9.784;2023-10-31T03:07:17;13.80;99.90
6252;DHT22;3159;52.414;9.784;2023-10-31T03:09:44;13.90;99.90
6252;DHT22;3159;52.414;9.784;2023-10-31T03:12:12;13.90;99.90
6252;DHT22;3159;52.414;9.784;2023-10-31T03:14:42;13.90;99.90
6252;DHT22;3159;52.414;9.784;2023-10-31T03:17:09;13.70;99.90
6252;DHT22;3159;52.414;9.784;2023-10-31T03:19:36;13.70;99.90
6252;DHT22;3159;52.414;9.784;2023-10-31T03:22:04;13.80;99.90
6252;DHT22;3159;52.414;9.784;2023-10-31T03:24:32;13.80;99.90
6252;DHT22;3159;52.414;9.784;2023-10-31T03:26:59;13.90;99.90
6252;DHT22;3159;52.414;9.784;2023-10-31T03:29:27;13.90;99.90
6252;DHT22;3159;52.414;9.784;2023-10-31T03:31:55;14.00;99.90
6252;DHT22;3159;52.414;9.784;2023-10-31T03:34:24;13.80;99.90
6252;DHT22;3159;52.414;9.784;2023-10-31T03:36:51;13.90;99.90
6252;DHT22;3159;52.414;9.784;2023-10-31T03:39:18;13.90;99.90
6252;DHT22;3159;52.414;9.784;2023-10-31T03:41:45;13.90;99.90
6252;DHT22;3159;52.414;9.784;2023-10-31T03:44:13;13.90;99.90
6252;DHT22;3159;52.414;9.784;2023-10-31T03:46:40;13.70;99.90
6252;DHT22;3159;52.414;9.784;2023-10-31T03:49:09;13.50;99.90
6252;DHT22;3159;52.414;9.784;2023-10-31T03:51:36;13.50;99.90
6252;DHT22;3159;52.414;9.784;2023-10-31T03:54:03;13.50;99.90
6252;DHT22;3159;52.414;9.784;2023-10-31T03:56:29;13.50;99.90
6252;DHT22;3159;52.414;9.784;2023-10-31T03:58:56;13.30;99.90
6252;DHT22;3159;52.414;9.784;2023-10-31T04:01:23;13.30;99.90
6252;DHT22;3159;52.414;9.784;2023-10-31T04:03:50;13.10;99.90
6252;DHT22;3159;52.414;9.784;2023-10-31T04:06:19;12.90;99.90
6252;DHT22;3159;52.414;9.784;2023-10-31T04:08:46;12.90;99.90
6252;DHT22;3159;52.414;9.784;2023-10-31T04:11:14;12.90;99.90
6252;DHT22;3159;52.414;9.784;2023-10-31T04:13:41;12.70;99.90
6252;DHT22;3159;52.414;9.784;2023-10-31T04:16:08;12.80;99.90
6252;DHT22;3159;52.414;9.784;2023-10-31T04:18:36;12.70;99.90
6252;DHT22;3159;52.414;9.784;2023-10-31T04:21:03;12.80;99.90
6252;DHT22;3159;52.414;9.784;2023-10-31T04:23:32;12.70;99.90
6252;DHT22;3159;52.414;9.784;2023-10-31T04:25:59;12.70;99.90
6252;DHT22;3159;52.414;9.784;2023-10-31T04:28:26;12.70;99.90
6252;DHT22;3159;52.414;9.784;2023-10-31T04:30:53;12.70;99.90
6252;DHT22;3159;52.414;9.784;2023-10-31T04:33:20;12.60;99.90
6252;DHT22;3159;52.414;9.784;2023-10-31T04:35:47;12.70;99.90
6252;DHT22;3159;52.414;9.784;2023-10-31T04:38:14;12.60;99.90
6252;DHT22;3159;52.414;9.784;2023-10-31T04:40:43;12.70;99.90
6252;DHT22;3159;52.414;9.784;2023-10-31T04:43:10;12.60;99.90
6252;DHT22;3159;52.414;9.784;2023-10-31T04:45:37;12.50;99.90
6252;DHT22;3159;52.414;9.784;2023-10-31T04:48:05;12.50;99.90
6252;DHT22;3159;52.414;9.784;2023-10-31T04:50:32;12.50;99.90
6252;DHT22;3159;52.414;9.784;2023-10-31T04:52:59;12.50;99.90
6252;DHT22;3159;52.414;9.784;2023-10-31T04:55:27;12.50;99.90
6252;DHT22;3159;52.414;9.784;2023-10-31T04:57:55;12.40;99.90
6252;DHT22;3159;52.414;9.784;2023-10-31T05:00:22;12.40;99.90
6252;DHT22;3159;52.414;9.784;2023-10-31T05:02:49;12.30;99.90
6252;DHT22;3159;52.414;9.784;2023-10-31T05:05:16;12.40;99.90
6252;DHT22;3159;52.414;9.784;2023-10-31T05:07:45;12.40;99.90
6252;DHT22;3159;52.414;9.784;2023-10-31T05:10:12;12.40;99.90
6252;DHT22;3159;52.414;9.784;2023-10-31T05:12:39;12.40;99.90
6252;DHT22;3159;52.414;9.784;2023-10-31T05:15:09;12.50;99.90
6252;DHT22;3159;52.414;9.784;2023-10-31T05:17:36;12.30;99.90
6252;DHT22;3159;52.414;9.784;2023-10-31T05:20:04;12.20;99.90
6252;DHT22;3159;52.414;9.784;2023-10-31T05:22:31;12.10;99.90
6252;DHT22;3159;52.414;9.784;2023-10-31T05:24:58;12.10;99.90
6252;DHT22;3159;52.414;9.784;2023-10-31T05:27:25;12.10;99.90
6252;DHT22;3159;52.414;9.784;2023-10-31T05:29:52;12.10;99.90
6252;DHT22;3159;52.414;9.784;2023-10-31T05:32:21;12.10;99.90
6252;DHT22;3159;52.414;9.784;2023-10-31T05:34:48;12.00;99.90
6252;DHT22;3159;52.414;9.784;2023-10-31T05:37:15;12.00;99.90
6252;DHT22;3159;52.414;9.784;2023-10-31T05:39:42;11.90;99.90
6252;DHT22;3159;52.414;9.784;2023-10-31T05:42:09;11.90;99.90
6252;DHT22;3159;52.414;9.784;2023-10-31T05:44:36;11.90;99.90
6252;DHT22;3159;52.414;9.784;2023-10-31T05:47:03;12.00;99.90
6252;DHT22;3159;52.414;9.784;2023-10-31T05:49:32;12.00;99.90
6252;DHT22;3159;52.414;9.784;2023-10-31T05:51:59;11.90;99.90
6252;DHT22;3159;52.414;9.784;2023-10-31T05:54:25;11.80;99.90
6252;DHT22;3159;52.414;9.784;2023-10-31T05:56:53;11.80;99.90
6252;DHT22;3159;52.414;9.784;2023-10-31T05:59:20;11.80;99.90
6252;DHT22;3159;52.414;9.784;2023-10-31T06:01:46;11.80;99.90
6252;DHT22;3159;52.414;9.784;2023-10-31T06:04:15;11.80;99.90
6252;DHT22;3159;52.414;9.784;2023-10-31T06:06:44;11.80;99.90
6252;DHT22;3159;52.414;9.784;2023-10-31T06:09:11;11.80;99.90
6252;DHT22;3159;52.414;9.784;2023-10-31T06:11:40;11.80;99.90
6252;DHT22;3159;52.414;9.784;2023-10-31T06:14:10;11.90;99.90
6252;DHT22;3159;52.414;9.784;2023-10-31T06:16:41;11.80;99.90
6252;DHT22;3159;52.414;9.784;2023-10-31T06:19:08;11.80;99.90
6252;DHT22;3159;52.414;9.784;2023-10-31T06:21:35;11.80;99.90
6252;DHT22;3159;52.414;9.784;2023-10-31T06:24:06;11.70;99.90
6252;DHT22;3159;52.414;9.784;2023-10-31T06:26:34;11.70;99.90
6252;DHT22;3159;52.414;9.784;2023-10-31T06:29:01;11.70;99.90
6252;DHT22;3159;52.414;9.784;2023-10-31T06:31:29;11.80;99.90
6252;DHT22;3159;52.414;9.784;2023-10-31T06:33:56;11.70;99.90
6252;DHT22;3159;52.414;9.784;2023-10-31T06:36:24;11.70;99.90
6252;DHT22;3159;52.414;9.784;2023-10-31T06:38:51;11.70;99.90
6252;DHT22;3159;52.414;9.784;2023-10-31T06:41:20;11.80;99.90
6252;DHT22;3159;52.414;9.784;2023-10-31T06:43:47;11.70;99.90
6252;DHT22;3159;52.414;9.784;2023-10-31T06:46:14;11.70;99.90
6252;DHT22;3159;52.414;9.784;2023-10-31T06:48:41;11.60;99.90
6252;DHT22;3159;52.414;9.784;2023-10-31T06:51:08;11.60;99.90
6252;DHT22;3159;52.414;9.784;2023-10-31T06:53:35;11.70;99.90
6252;DHT22;3159;52.414;9.784;2023-10-31T06:56:03;11.60;99.90
6252;DHT22;3159;52.414;9.784;2023-10-31T06:58:31;11.70;99.90
6252;DHT22;3159;52.414;9.784;2023-10-31T07:00:58;11.70;99.90
6252;DHT22;3159;52.414;9.784;2023-10-31T07:03:25;11.70;99.90
6252;DHT22;3159;52.414;9.784;2023-10-31T07:05:52;11.70;99.90
6252;DHT22;3159;52.414;9.784;2023-10-31T07:08:21;11.70;99.90
6252;DHT22;3159;52.414;9.784;2023-10-31T07:10:49;11.70;99.90
6252;DHT22;3159;52.414;9.784;2023-10-31T07:13:16;11.80;99.90
6252;DHT22;3159;52.414;9.784;2023-10-31T07:15:44;11.70;99.90
6252;DHT22;3159;52.414;9.784;2023-10-31T07:18:12;11.60;99.90
6252;DHT22;3159;52.414;9.784;2023-10-31T07:20:39;11.70;99.90
6252;DHT22;3159;52.414;9.784;2023-10-31T07:23:06;11.80;99.90
6252;DHT22;3159;52.414;9.784;2023-10-31T07:25:33;11.70;99.90
6252;DHT22;3159;52.414;9.784;2023-10-31T07:28:00;11.70;99.90
6252;DHT22;3159;52.414;9.784;2023-10-31T07:30:27;11.70;99.90
6252;DHT22;3159;52.414;9.784;2023-10-31T07:32:56;11.70;99.90
6252;DHT22;3159;52.414;9.784;2023-10-31T07:35:22;11.70;99.90
6252;DHT22;3159;52.414;9.784;2023-10-31T07:37:50;11.70;99.90
6252;DHT22;3159;52.414;9.784;2023-10-31T07:40:17;11.70;99.90
6252;DHT22;3159;52.414;9.784;2023-10-31T07:42:44;11.70;99.90
6252;DHT22;3159;52.414;9.784;2023-10-31T07:45:11;11.60;99.90
6252;DHT22;3159;52.414;9.784;2023-10-31T07:47:38;11.70;99.90
6252;DHT22;3159;52.414;9.784;2023-10-31T07:50:07;11.60;99.90
6252;DHT22;3159;52.414;9.784;2023-10-31T07:52:36;11.60;99.90
6252;DHT22;3159;52.414;9.784;2023-10-31T07:55:04;11.70;99.90
6252;DHT22;3159;52.414;9.784;2023-10-31T07:57:31;11.70;99.90
6252;DHT22;3159;52.414;9.784;2023-10-31T07:59:58;11.60;99.90
6252;DHT22;3159;52.414;9.784;2023-10-31T08:02:26;11.70;99.90
6252;DHT22;3159;52.414;9.784;2023-10-31T08:05:00;11.60;99.90
6252;DHT22;3159;52.414;9.784;2023-10-31T08:07:28;11.60;99.90
6252;DHT22;3159;52.414;9.784;2023-10-31T08:09:55;11.70;99.90
6252;DHT22;3159;52.414;9.784;2023-10-31T08:12:22;11.60;99.90
6252;DHT22;3159;52.414;9.784;2023-10-31T08:14:49;11.70;99.90
6252;DHT22;3159;52.414;9.784;2023-10-31T08:17:17;11.70;99.90
6252;DHT22;3159;52.414;9.784;2023-10-31T08:19:44;11.70;99.90
6252;DHT22;3159;52.414;9.784;2023-10-31T08:22:13;11.80;99.90
6252;DHT22;3159;52.414;9.784;2023-10-31T08:24:41;11.80;99.90
6252;DHT22;3159;52.414;9.784;2023-10-31T08:27:08;11.80;99.90
6252;DHT22;3159;52.414;9.784;2023-10-31T08:29:36;11.80;99.90
6252;DHT22;3159;52.414;9.784;2023-10-31T08:32:03;11.90;99.90
6252;DHT22;3159;52.414;9.784;2023-10-31T08:34:31;12.00;99.90
6252;DHT22;3159;52.414;9.784;2023-10-31T08:36:58;12.10;99.90
6252;DHT22;3159;52.414;9.784;2023-10-31T08:39:26;11.90;99.90
6252;DHT22;3159;52.414;9.784;2023-10-31T08:41:57;11.90;99.90
6252;DHT22;3159;52.414;9.784;2023-10-31T08:44:25;11.90;99.90
6252;DHT22;3159;52.414;9.784;2023-10-31T08:46:52;11.90;99.90
6252;DHT22;3159;52.414;9.784;2023-10-31T08:49:19;11.80;99.90
6252;DHT22;3159;52.414;9.784;2023-10-31T08:51:46;11.80;99.90
6252;DHT22;3159;52.414;9.784;2023-10-31T08:54:13;11.90;99.90
6252;DHT22;3159;52.414;9.784;2023-10-31T08:56:41;11.90;99.90
6252;DHT22;3159;52.414;9.784;2023-10-31T08:59:09;12.00;99.90
6252;DHT22;3159;52.414;9.784;2023-10-31T09:01:36;12.10;99.90
6252;DHT22;3159;52.414;9.784;2023-10-31T09:04:03;12.10;99.90
6252;DHT22;3159;52.414;9.784;2023-10-31T09:06:32;12.10;99.90
6252;DHT22;3159;52.414;9.784;2023-10-31T09:08:59;12.10;99.90
6252;DHT22;3159;52.414;9.784;2023-10-31T09:11:26;12.10;99.90
6252;DHT22;3159;52.414;9.784;2023-10-31T09:13:54;12.10;99.90
6252;DHT22;3159;52.414;9.784;2023-10-31T09:16:28;12.10;99.90
6252;DHT22;3159;52.414;9.784;2023-10-31T09:18:55;12.00;99.90
6252;DHT22;3159;52.414;9.784;2023-10-31T09:21:22;12.10;99.90
6252;DHT22;3159;52.414;9.784;2023-10-31T09:23:50;12.20;99.90
6252;DHT22;3159;52.414;9.784;2023-10-31T09:26:17;12.10;99.90
6252;DHT22;3159;52.414;9.784;2023-10-31T09:28:44;12.20;99.90
6252;DHT22;3159;52.414;9.784;2023-10-31T09:31:15;12.10;99.90
6252;DHT22;3159;52.414;9.784;2023-10-31T09:33:44;12.10;99.90
6252;DHT22;3159;52.414;9.784;2023-10-31T09:36:11;11.90;99.90
6252;DHT22;3159;52.414;9.784;2023-10-31T09:38:40;11.80;99.90
6252;DHT22;3159;52.414;9.784;2023-10-31T09:41:07;11.80;99.90
6252;DHT22;3159;52.414;9.784;2023-10-31T09:43:34;11.90;99.90
6252;DHT22;3159;52.414;9.784;2023-10-31T09:46:02;11.90;99.90
6252;DHT22;3159;52.414;9.784;2023-10-31T09:48:30;11.80;99.90
6252;DHT22;3159;52.414;9.784;2023-10-31T09:50:59;11.70;99.90
6252;DHT22;3159;52.414;9.784;2023-10-31T09:53:40;11.70;99.90
6252;DHT22;3159;52.414;9.784;2023-10-31T09:56:27;11.70;99.90
6252;DHT22;3159;52.414;9.784;2023-10-31T09:59:00;11.80;99.90
6252;DHT22;3159;52.414;9.784;2023-10-31T10:01:27;11.70;99.90
6252;DHT22;3159;52.414;9.784;2023-10-31T10:03:54;11.70;99.90
6252;DHT22;3159;52.414;9.784;2023-10-31T10:06:23;11.80;99.90
6252;DHT22;3159;52.414;9.784;2023-10-31T10:08:52;11.70;99.90
6252;DHT22;3159;52.414;9.784;2023-10-31T10:11:19;11.70;99.90
6252;DHT22;3159;52.414;9.784;2023-10-31T10:13:46;11.70;99.90
6252;DHT22;3159;52.414;9.784;2023-10-31T10:16:30;11.70;99.90
6252;DHT22;3159;52.414;9.784;2023-10-31T10:19:18;11.80;99.90
6252;DHT22;3159;52.414;9.784;2023-10-31T10:21:49;11.60;99.90
6252;DHT22;3159;52.414;9.784;2023-10-31T10:24:16;11.60;99.90
6252;DHT22;3159;52.414;9.784;2023-10-31T10:26:45;11.60;99.90
6252;DHT22;3159;52.414;9.784;2023-10-31T10:29:13;11.60;99.90
6252;DHT22;3159;52.414;9.784;2023-10-31T10:31:42;11.70;99.90
6252;DHT22;3159;52.414;9.784;2023-10-31T10:34:14;11.70;99.90
6252;DHT22;3159;52.414;9.784;2023-10-31T10:36:48;11.80;99.90
6252;DHT22;3159;52.414;9.784;2023-10-31T10:39:23;11.80;99.90
6252;DHT22;3159;52.414;9.784;2023-10-31T10:41:57;11.80;99.90
6252;DHT22;3159;52.414;9.784;2023-10-31T10:44:31;11.90;99.90
6252;DHT22;3159;52.414;9.784;2023-10-31T10:47:03;12.00;99.90
6252;DHT22;3159;52.414;9.784;2023-10-31T10:49:33;12.00;99.90
6252;DHT22;3159;52.414;9.784;2023-10-31T10:52:23;12.00;99.90
6252;DHT22;3159;52.414;9.784;2023-10-31T10:54:57;12.00;99.90
6252;DHT22;3159;52.414;9.784;2023-10-31T10:57:32;12.00;99.90
6252;DHT22;3159;52.414;9.784;2023-10-31T11:00:05;12.00;99.90
6252;DHT22;3159;52.414;9.784;2023-10-31T11:02:35;12.00;99.90
6252;DHT22;3159;52.414;9.784;2023-10-31T11:05:08;12.00;99.90
6252;DHT22;3159;52.414;9.784;2023-10-31T11:07:37;12.10;99.90
6252;DHT22;3159;52.414;9.784;2023-10-31T11:10:05;12.10;99.90
6252;DHT22;3159;52.414;9.784;2023-10-31T11:12:36;12.20;99.90
6252;DHT22;3159;52.414;9.784;2023-10-31T11:15:08;12.20;99.90
6252;DHT22;3159;52.414;9.784;2023-10-31T11:21:27;12.20;99.90
6252;DHT22;3159;52.414;9.784;2023-10-31T11:24:02;12.20;99.90
6252;DHT22;3159;52.414;9.784;2023-10-31T11:26:32;12.20;99.90
6252;DHT22;3159;52.414;9.784;2023-10-31T11:29:08;12.20;99.90
6252;DHT22;3159;52.414;9.784;2023-10-31T11:31:37;12.20;99.90
6252;DHT22;3159;52.414;9.784;2023-10-31T11:34:06;12.10;99.90
6252;DHT22;3159;52.414;9.784;2023-10-31T11:36:41;12.20;99.90
6252;DHT22;3159;52.414;9.784;2023-10-31T11:39:22;12.20;99.90
6252;DHT22;3159;52.414;9.784;2023-10-31T11:41:54;12.20;99.90
6252;DHT22;3159;52.414;9.784;2023-10-31T11:44:26;12.20;99.90
6252;DHT22;3159;52.414;9.784;2023-10-31T11:46:58;12.20;99.90
6252;DHT22;3159;52.414;9.784;2023-10-31T11:49:46;12.20;99.90
6252;DHT22;3159;52.414;9.784;2023-10-31T11:52:14;12.20;99.90
6252;DHT22;3159;52.414;9.784;2023-10-31T11:54:43;12.20;99.90
6252;DHT22;3159;52.414;9.784;2023-10-31T11:57:28;12.30;99.90
6252;DHT22;3159;52.414;9.784;2023-10-31T11:59:55;12.30;99.90
6252;DHT22;3159;52.414;9.784;2023-10-31T12:02:25;12.30;99.90
6252;DHT22;3159;52.414;9.784;2023-10-31T12:05:06;12.30;99.90
6252;DHT22;3159;52.414;9.784;2023-10-31T12:07:42;12.30;99.90
6252;DHT22;3159;52.414;9.784;2023-10-31T12:10:25;12.30;99.90
6252;DHT22;3159;52.414;9.784;2023-10-31T12:12:53;12.40;99.90
6252;DHT22;3159;52.414;9.784;2023-10-31T12:15:20;12.40;99.90
6252;DHT22;3159;52.414;9.784;2023-10-31T12:17:50;12.40;99.90
6252;DHT22;3159;52.414;9.784;2023-10-31T12:20:20;12.30;99.90
6252;DHT22;3159;52.414;9.784;2023-10-31T12:23:01;12.30;99.90
6252;DHT22;3159;52.414;9.784;2023-10-31T12:25:30;12.40;99.90
6252;DHT22;3159;52.414;9.784;2023-10-31T12:28:17;12.30;99.90
6252;DHT22;3159;52.414;9.784;2023-10-31T12:30:47;12.40;99.90
6252;DHT22;3159;52.414;9.784;2023-10-31T12:33:17;12.40;99.90
6252;DHT22;3159;52.414;9.784;2023-10-31T12:35:45;12.40;99.90
6252;DHT22;3159;52.414;9.784;2023-10-31T12:38:15;12.40;99.90
6252;DHT22;3159;52.414;9.784;2023-10-31T12:40:49;12.40;99.90
6252;DHT22;3159;52.414;9.784;2023-10-31T12:43:19;12.40;99.90
6252;DHT22;3159;52.414;9.784;2023-10-31T12:45:48;12.50;99.90
6252;DHT22;3159;52.414;9.784;2023-10-31T12:48:24;12.60;99.90
6252;DHT22;3159;52.414;9.784;2023-10-31T12:51:06;12.40;99.90
6252;DHT22;3159;52.414;9.784;2023-10-31T12:53:35;12.40;99.90
6252;DHT22;3159;52.414;9.784;2023-10-31T12:56:05;12.40;99.90
6252;DHT22;3159;52.414;9.784;2023-10-31T12:58:32;12.40;99.90
6252;DHT22;3159;52.414;9.784;2023-10-31T13:00:59;12.30;99.90
6252;DHT22;3159;52.414;9.784;2023-10-31T13:03:27;12.30;99.90
6252;DHT22;3159;52.414;9.784;2023-10-31T13:05:54;12.30;99.90
6252;DHT22;3159;52.414;9.784;2023-10-31T13:08:22;12.40;99.90
6252;DHT22;3159;52.414;9.784;2023-10-31T13:10:49;12.40;99.90
6252;DHT22;3159;52.414;9.784;2023-10-31T13:13:20;12.40;99.90
6252;DHT22;3159;52.414;9.784;2023-10-31T13:15:48;12.40;99.90
6252;DHT22;3159;52.414;9.784;2023-10-31T13:18:15;12.40;99.90
6252;DHT22;3159;52.414;9.784;2023-10-31T13:20:42;12.40;99.90
6252;DHT22;3159;52.414;9.784;2023-10-31T13:23:09;12.30;99.90
6252;DHT22;3159;52.414;9.784;2023-10-31T13:25:37;12.40;99.90
6252;DHT22;3159;52.414;9.784;2023-10-31T13:28:04;12.40;99.90
6252;DHT22;3159;52.414;9.784;2023-10-31T13:30:34;12.40;99.90
6252;DHT22;3159;52.414;9.784;2023-10-31T13:33:02;12.50;99.90
6252;DHT22;3159;52.414;9.784;2023-10-31T13:35:31;12.50;99.90
6252;DHT22;3159;52.414;9.784;2023-10-31T13:37:59;12.50;99.90
6252;DHT22;3159;52.414;9.784;2023-10-31T13:40:26;12.50;99.90
6252;DHT22;3159;52.414;9.784;2023-10-31T13:42:53;12.50;99.90
6252;DHT22;3159;52.414;9.784;2023-10-31T13:45:21;12.50;99.90
6252;DHT22;3159;52.414;9.784;2023-10-31T13:47:50;12.50;99.90
6252;DHT22;3159;52.414;9.784;2023-10-31T13:50:17;12.50;99.90
6252;DHT22;3159;52.414;9.784;2023-10-31T13:52:44;12.50;99.90
6252;DHT22;3159;52.414;9.784;2023-10-31T13:55:11;12.70;99.90
6252;DHT22;3159;52.414;9.784;2023-10-31T13:57:38;12.70;99.90
6252;DHT22;3159;52.414;9.784;2023-10-31T14:00:07;12.60;99.90
6252;DHT22;3159;52.414;9.784;2023-10-31T14:02:34;12.60;99.90
6252;DHT22;3159;52.414;9.784;2023-10-31T14:05:06;12.60;99.90
6252;DHT22;3159;52.414;9.784;2023-10-31T14:07:33;12.70;99.90
6252;DHT22;3159;52.414;9.784;2023-10-31T14:10:00;12.70;99.90
6252;DHT22;3159;52.414;9.784;2023-10-31T14:12:27;12.80;99.90
6252;DHT22;3159;52.414;9.784;2023-10-31T14:14:54;12.70;99.90
6252;DHT22;3159;52.414;9.784;2023-10-31T14:17:21;12.80;99.90
6252;DHT22;3159;52.414;9.784;2023-10-31T14:19:50;12.80;99.90
6252;DHT22;3159;52.414;9.784;2023-10-31T14:22:20;12.80;99.90
6252;DHT22;3159;52.414;9.784;2023-10-31T14:24:48;12.70;99.90
6252;DHT22;3159;52.414;9.784;2023-10-31T14:27:19;12.80;99.90
6252;DHT22;3159;52.414;9.784;2023-10-31T14:29:47;12.80;99.90
6252;DHT22;3159;52.414;9.784;2023-10-31T14:32:24;12.90;99.90
6252;DHT22;3159;52.414;9.784;2023-10-31T14:34:51;12.80;99.90
6252;DHT22;3159;52.414;9.784;2023-10-31T14:37:22;12.70;99.90
6252;DHT22;3159;52.414;9.784;2023-10-31T14:39:57;12.70;99.90
6252;DHT22;3159;52.414;9.784;2023-10-31T14:42:24;12.70;99.90
6252;DHT22;3159;52.414;9.784;2023-10-31T14:44:51;12.70;99.90
6252;DHT22;3159;52.414;9.784;2023-10-31T14:47:19;12.50;99.90
6252;DHT22;3159;52.414;9.784;2023-10-31T14:49:46;12.60;99.90
6252;DHT22;3159;52.414;9.784;2023-10-31T14:52:13;12.60;99.90
6252;DHT22;3159;52.414;9.784;2023-10-31T14:54:44;12.50;99.90
6252;DHT22;3159;52.414;9.784;2023-10-31T14:57:11;12.60;99.90
6252;DHT22;3159;52.414;9.784;2023-10-31T14:59:40;12.40;99.90
6252;DHT22;3159;52.414;9.784;2023-10-31T15:02:07;12.40;99.90
6252;DHT22;3159;52.414;9.784;2023-10-31T15:04:34;12.40;99.90
6252;DHT22;3159;52.414;9.784;2023-10-31T15:07:01;12.50;99.90
6252;DHT22;3159;52.414;9.784;2023-10-31T15:09:28;12.40;99.90
6252;DHT22;3159;52.414;9.784;2023-10-31T15:11:57;12.30;99.90
6252;DHT22;3159;52.414;9.784;2023-10-31T15:14:24;12.30;99.90
6252;DHT22;3159;52.414;9.784;2023-10-31T15:16:51;12.30;99.90
6252;DHT22;3159;52.414;9.784;2023-10-31T15:19:19;12.30;99.90
6252;DHT22;3159;52.414;9.784;2023-10-31T15:21:46;12.30;99.90
6252;DHT22;3159;52.414;9.784;2023-10-31T15:24:14;12.30;99.90
6252;DHT22;3159;52.414;9.784;2023-10-31T15:26:41;12.30;99.90
6252;DHT22;3159;52.414;9.784;2023-10-31T15:29:10;12.30;99.90
6252;DHT22;3159;52.414;9.784;2023-10-31T15:31:42;12.30;99.90
6252;DHT22;3159;52.414;9.784;2023-10-31T15:34:10;12.30;99.90
6252;DHT22;3159;52.414;9.784;2023-10-31T15:36:37;12.40;99.90
6252;DHT22;3159;52.414;9.784;2023-10-31T15:39:04;12.50;99.90
6252;DHT22;3159;52.414;9.784;2023-10-31T15:41:32;12.50;99.90
6252;DHT22;3159;52.414;9.784;2023-10-31T15:44:00;12.40;99.90
6252;DHT22;3159;52.414;9.784;2023-10-31T15:46:29;12.40;99.90
6252;DHT22;3159;52.414;9.784;2023-10-31T15:48:56;12.30;99.90
6252;DHT22;3159;52.414;9.784;2023-10-31T15:51:23;12.30;99.90
6252;DHT22;3159;52.414;9.784;2023-10-31T15:53:50;12.40;99.90
6252;DHT22;3159;52.414;9.784;2023-10-31T15:56:17;12.30;99.90
6252;DHT22;3159;52.414;9.784;2023-10-31T15:58:44;12.30;99.90
6252;DHT22;3159;52.414;9.784;2023-10-31T16:01:11;12.30;99.90
6252;DHT22;3159;52.414;9.784;2023-10-31T16:03:42;12.40;99.90
6252;DHT22;3159;52.414;9.784;2023-10-31T16:06:09;12.30;99.90
6252;DHT22;3159;52.414;9.784;2023-10-31T16:08:37;12.30;99.90
6252;DHT22;3159;52.414;9.784;2023-10-31T16:11:05;12.30;99.90
6252;DHT22;3159;52.414;9.784;2023-10-31T16:13:32;12.20;99.90